Time;durP1;ratioP1;P1;durP2;ratioP2;P2;SDS_P1;SDS_P2;PMS_P1;PMS_P2;Temp;Humidity;BMP_temperature;BMP_pressure;BME280_temperature;BME280_humidity;BME280_pressure;Samples;Min_cycle;Max_cycle;Signal;HPM_P1;HPM_P2
2023/08/06 00:02:08;;;;;;;2.22;1.55;;;;;;;;;;8239947;28;20030;-70
2023/08/06 00:06:08;;;;;;;4.45;1.85;;;;;;;;;;8239177;28;20018;-70
2023/08/06 00:10:09;;;;;;;2.47;1.92;;;;;;;;;;8237494;28;20021;-70
2023/08/06 00:14:09;;;;;;;1.73;1.60;;;;;;;;;;8239943;28;20026;-70
2023/08/06 00:18:09;;;;;;;1.70;1.60;;;;;;;;;;8235401;28;20270;-69
2023/08/06 00:22:10;;;;;;;1.90;1.58;;;;;;;;;;8237496;28;20026;-70
2023/08/06 00:26:10;;;;;;;3.25;1.80;;;;;;;;;;8237026;28;20057;-70
2023/08/06 00:30:10;;;;;;;3.27;1.50;;;;;;;;;;8234453;28;20112;-70
2023/08/06 00:34:10;;;;;;;3.97;1.67;;;;;;;;;;8238608;28;20026;-70
2023/08/06 00:38:10;;;;;;;2.10;1.60;;;;;;;;;;8236794;28;20152;-70
2023/08/06 00:42:11;;;;;;;4.22;1.50;;;;;;;;;;8238390;28;20034;-70
2023/08/06 00:46:11;;;;;;;5.70;1.65;;;;;;;;;;8236633;28;20451;-70
2023/08/06 00:50:12;;;;;;;2.42;1.70;;;;;;;;;;8236292;28;20130;-70
2023/08/06 00:54:12;;;;;;;2.08;1.60;;;;;;;;;;8237988;28;20030;-70
2023/08/06 00:58:13;;;;;;;2.85;1.33;;;;;;;;;;8237363;28;20926;-70
2023/08/06 01:02:13;;;;;;;3.90;1.60;;;;;;;;;;8235094;28;20936;-70
2023/08/06 01:06:19;;;;;;;1.90;1.20;;;;;;;;;;8237781;28;20030;-70
2023/08/06 01:10:24;;;;;;;5.00;1.92;;;;;;;;;;8228994;28;20053;-70
2023/08/06 01:14:27;;;;;;;2.28;1.60;;;;;;;;;;8237582;28;20033;-70
2023/08/06 01:18:27;;;;;;;4.43;1.80;;;;;;;;;;8228465;28;20843;-70
2023/08/06 01:22:27;;;;;;;3.28;1.58;;;;;;;;;;8209368;28;20110;-70
2023/08/06 01:26:35;;;;;;;3.78;1.58;;;;;;;;;;8210641;28;20054;-70
2023/08/06 01:30:38;;;;;;;2.80;1.40;;;;;;;;;;8210136;28;20030;-69
2023/08/06 01:34:40;;;;;;;3.37;1.53;;;;;;;;;;8210009;28;20077;-70
2023/08/06 01:38:40;;;;;;;2.85;1.50;;;;;;;;;;8209264;28;20224;-69
2023/08/06 01:42:40;;;;;;;2.33;1.40;;;;;;;;;;8209746;28;20042;-69
2023/08/06 01:46:40;;;;;;;2.53;1.20;;;;;;;;;;8208991;28;20046;-70
2023/08/06 01:50:41;;;;;;;2.92;1.30;;;;;;;;;;8209105;28;20029;-69
2023/08/06 01:54:42;;;;;;;2.15;1.05;;;;;;;;;;8208209;28;20033;-70
2023/08/06 01:58:42;;;;;;;1.92;1.52;;;;;;;;;;8205349;28;20030;-69
2023/08/06 02:02:42;;;;;;;3.13;1.30;;;;;;;;;;8204587;28;20030;-70
2023/08/06 02:06:42;;;;;;;3.57;1.50;;;;;;;;;;8204197;28;20130;-70
2023/08/06 02:10:43;;;;;;;8.35;1.20;;;;;;;;;;8207317;28;20034;-69
2023/08/06 02:14:43;;;;;;;5.38;1.63;;;;;;;;;;8209411;28;20022;-70
2023/08/06 02:18:43;;;;;;;3.20;1.10;;;;;;;;;;8204273;28;20041;-69
2023/08/06 02:22:43;;;;;;;2.33;1.20;;;;;;;;;;8203970;28;20022;-70
2023/08/06 02:26:43;;;;;;;2.40;1.10;;;;;;;;;;8209251;28;20741;-70
2023/08/06 02:30:50;;;;;;;3.53;1.15;;;;;;;;;;8205177;28;20376;-69
2023/08/06 02:34:51;;;;;;;5.32;1.30;;;;;;;;;;8212457;28;20184;-69
2023/08/06 02:38:51;;;;;;;2.93;1.20;;;;;;;;;;8203816;28;20050;-69
2023/08/06 02:42:51;;;;;;;2.42;1.10;;;;;;;;;;8205917;28;20022;-69
2023/08/06 02:46:51;;;;;;;2.58;1.23;;;;;;;;;;8203940;28;20045;-70
2023/08/06 02:50:51;;;;;;;2.55;0.95;;;;;;;;;;8206363;28;20038;-69
2023/08/06 02:54:52;;;;;;;1.58;1.00;;;;;;;;;;8206987;28;20026;-70
2023/08/06 02:58:52;;;;;;;1.93;0.90;;;;;;;;;;8201377;28;20037;-70
2023/08/06 03:02:52;;;;;;;0.98;0.88;;;;;;;;;;8202823;28;20039;-69
2023/08/06 03:06:53;;;;;;;1.17;0.80;;;;;;;;;;8201384;28;20026;-69
2023/08/06 03:10:53;;;;;;;1.25;0.80;;;;;;;;;;8201236;28;20046;-70
2023/08/06 03:14:53;;;;;;;3.10;0.90;;;;;;;;;;8206933;28;20034;-70
2023/08/06 03:18:54;;;;;;;0.50;0.50;;;;;;;;;;8204526;28;20035;-70
2023/08/06 03:22:54;;;;;;;1.40;1.05;;;;;;;;;;8203840;28;20026;-69
2023/08/06 03:26:54;;;;;;;1.60;0.60;;;;;;;;;;8201112;28;20041;-69
2023/08/06 03:31:01;;;;;;;0.90;0.60;;;;;;;;;;8204817;28;20860;-69
2023/08/06 03:35:01;;;;;;;0.88;0.50;;;;;;;;;;8204865;28;20031;-70
2023/08/06 03:39:01;;;;;;;1.60;0.60;;;;;;;;;;8203346;28;20081;-69
2023/08/06 03:43:01;;;;;;;1.52;0.55;;;;;;;;;;8201380;28;20476;-69
2023/08/06 03:47:02;;;;;;;0.40;0.40;;;;;;;;;;8202677;28;20038;-69
2023/08/06 03:51:02;;;;;;;1.30;0.50;;;;;;;;;;8204147;28;20301;-69
2023/08/06 03:55:02;;;;;;;1.73;0.82;;;;;;;;;;8203948;28;20088;-69
2023/08/06 03:59:03;;;;;;;0.70;0.50;;;;;;;;;;8203591;28;20031;-69
2023/08/06 04:03:03;;;;;;;0.60;0.52;;;;;;;;;;8202483;28;20041;-69
2023/08/06 04:07:03;;;;;;;1.42;0.60;;;;;;;;;;8200888;28;20034;-69
2023/08/06 04:11:04;;;;;;;0.50;0.50;;;;;;;;;;8205805;28;20665;-69
2023/08/06 04:15:04;;;;;;;5.47;0.60;;;;;;;;;;8204936;28;20269;-69
2023/08/06 04:19:04;;;;;;;0.65;0.30;;;;;;;;;;8200778;28;20033;-69
2023/08/06 04:23:08;;;;;;;0.40;0.40;;;;;;;;;;8202440;28;20794;-69
2023/08/06 04:27:08;;;;;;;2.78;0.50;;;;;;;;;;8203963;28;20035;-69
2023/08/06 04:31:08;;;;;;;0.32;0.32;;;;;;;;;;8204214;28;20052;-69
2023/08/06 04:35:09;;;;;;;0.40;0.40;;;;;;;;;;8201195;28;20037;-69
2023/08/06 04:39:09;;;;;;;1.17;0.40;;;;;;;;;;8204032;28;20076;-69
2023/08/06 04:43:09;;;;;;;0.40;0.40;;;;;;;;;;8203955;28;20026;-69
2023/08/06 04:47:09;;;;;;;0.90;0.40;;;;;;;;;;8200427;28;20047;-69
2023/08/06 04:51:09;;;;;;;0.30;0.30;;;;;;;;;;8202430;28;20048;-69
2023/08/06 04:55:10;;;;;;;0.33;0.33;;;;;;;;;;8209574;28;20737;-69
2023/08/06 04:59:10;;;;;;;0.47;0.30;;;;;;;;;;8208574;28;20033;-69
2023/08/06 05:03:10;;;;;;;0.22;0.22;;;;;;;;;;8209745;28;20089;-70
2023/08/06 05:07:10;;;;;;;0.88;0.40;;;;;;;;;;8208273;28;20033;-69
2023/08/06 05:11:11;;;;;;;1.23;0.30;;;;;;;;;;8211704;28;20026;-69
2023/08/06 05:15:11;;;;;;;0.50;0.50;;;;;;;;;;8208434;28;20066;-70
2023/08/06 05:19:11;;;;;;;0.40;0.40;;;;;;;;;;8208718;28;20057;-70
2023/08/06 05:23:11;;;;;;;0.43;0.43;;;;;;;;;;8209971;28;20172;-70
2023/08/06 05:27:12;;;;;;;0.47;0.47;;;;;;;;;;8207752;28;20038;-70
2023/08/06 05:31:12;;;;;;;0.55;0.40;;;;;;;;;;8208132;28;20066;-70
2023/08/06 05:35:12;;;;;;;0.40;0.40;;;;;;;;;;8207078;28;20668;-70
2023/08/06 05:39:12;;;;;;;0.40;0.40;;;;;;;;;;8202936;28;20037;-69
2023/08/06 05:43:13;;;;;;;0.40;0.40;;;;;;;;;;8213279;28;20125;-69
2023/08/06 05:47:13;;;;;;;0.40;0.40;;;;;;;;;;8204501;28;20077;-69
2023/08/06 05:51:14;;;;;;;0.50;0.50;;;;;;;;;;8207896;28;20026;-69
2023/08/06 05:55:14;;;;;;;0.43;0.40;;;;;;;;;;8206282;28;20030;-69
2023/08/06 05:59:14;;;;;;;0.37;0.37;;;;;;;;;;8203940;28;20116;-69
2023/08/06 06:03:14;;;;;;;0.35;0.35;;;;;;;;;;8198751;28;20046;-70
2023/08/06 06:07:15;;;;;;;0.50;0.30;;;;;;;;;;8202924;28;20030;-70
2023/08/06 06:11:15;;;;;;;0.45;0.40;;;;;;;;;;8203299;28;20101;-70
2023/08/06 06:15:15;;;;;;;0.45;0.40;;;;;;;;;;8204397;28;20026;-70
2023/08/06 06:19:15;;;;;;;0.50;0.50;;;;;;;;;;8203688;28;20082;-70
2023/08/06 06:23:16;;;;;;;0.83;0.40;;;;;;;;;;8201258;28;20037;-71
2023/08/06 06:27:16;;;;;;;0.67;0.40;;;;;;;;;;8202636;28;20285;-70
2023/08/06 06:31:16;;;;;;;0.30;0.30;;;;;;;;;;8201671;28;20309;-70
2023/08/06 06:35:16;;;;;;;0.68;0.50;;;;;;;;;;8202155;28;20030;-70
2023/08/06 06:39:17;;;;;;;0.95;0.50;;;;;;;;;;8202718;28;20490;-70
2023/08/06 06:43:17;;;;;;;0.68;0.60;;;;;;;;;;8199776;28;20780;-70
2023/08/06 06:47:18;;;;;;;0.43;0.43;;;;;;;;;;8203505;28;20034;-69
2023/08/06 06:51:18;;;;;;;0.50;0.50;;;;;;;;;;8205167;28;20090;-70
2023/08/06 06:55:18;;;;;;;0.57;0.57;;;;;;;;;;8203509;28;20034;-70
2023/08/06 06:59:18;;;;;;;1.05;0.73;;;;;;;;;;8201486;28;20034;-69
2023/08/06 07:03:19;;;;;;;1.05;0.60;;;;;;;;;;8201000;28;20132;-70
2023/08/06 07:07:19;;;;;;;0.50;0.50;;;;;;;;;;8201891;28;20144;-71
2023/08/06 07:11:20;;;;;;;0.95;0.60;;;;;;;;;;8200715;28;20475;-73
2023/08/06 07:15:20;;;;;;;1.80;0.60;;;;;;;;;;8202249;28;20057;-73
2023/08/06 07:19:20;;;;;;;1.13;0.60;;;;;;;;;;8204716;28;20821;-71
2023/08/06 07:23:21;;;;;;;0.47;0.47;;;;;;;;;;8199371;28;20129;-72
2023/08/06 07:27:21;;;;;;;0.40;0.40;;;;;;;;;;8199188;28;20026;-71
2023/08/06 07:31:21;;;;;;;0.95;0.50;;;;;;;;;;8201179;28;20560;-72
2023/08/06 07:35:21;;;;;;;0.47;0.40;;;;;;;;;;8202791;28;20026;-71
2023/08/06 07:39:22;;;;;;;0.30;0.30;;;;;;;;;;8200821;28;20050;-71
2023/08/06 07:43:22;;;;;;;0.65;0.50;;;;;;;;;;8202862;28;20105;-71
2023/08/06 07:47:23;;;;;;;0.30;0.30;;;;;;;;;;8199971;28;20920;-71
2023/08/06 07:51:23;;;;;;;0.35;0.35;;;;;;;;;;8200358;28;20026;-71
2023/08/06 07:55:23;;;;;;;0.30;0.30;;;;;;;;;;8200497;28;20022;-71
2023/08/06 07:59:23;;;;;;;0.30;0.30;;;;;;;;;;8201624;28;20093;-71
2023/08/06 08:03:23;;;;;;;0.40;0.40;;;;;;;;;;8201133;28;20403;-71
2023/08/06 08:07:24;;;;;;;0.40;0.40;;;;;;;;;;8200917;28;20037;-72
2023/08/06 08:11:25;;;;;;;1.17;0.40;;;;;;;;;;8200987;28;20076;-72
2023/08/06 08:15:28;;;;;;;0.60;0.50;;;;;;;;;;8200292;28;20316;-71
2023/08/06 08:19:29;;;;;;;0.40;0.40;;;;;;;;;;8202555;28;20101;-71
2023/08/06 08:23:31;;;;;;;1.30;0.60;;;;;;;;;;8199505;28;20039;-71
2023/08/06 08:27:31;;;;;;;1.23;0.50;;;;;;;;;;8198761;28;20560;-71
2023/08/06 08:31:38;;;;;;;0.40;0.40;;;;;;;;;;8198266;28;20060;-71
2023/08/06 08:35:38;;;;;;;0.47;0.40;;;;;;;;;;8199981;28;20026;-71
2023/08/06 08:39:39;;;;;;;0.30;0.30;;;;;;;;;;8200076;28;20031;-71
2023/08/06 08:43:40;;;;;;;0.52;0.50;;;;;;;;;;8202278;28;20030;-72
2023/08/06 08:47:41;;;;;;;0.57;0.50;;;;;;;;;;8197694;28;20050;-71
2023/08/06 08:51:43;;;;;;;0.95;0.40;;;;;;;;;;8200441;28;20050;-71
2023/08/06 08:55:48;;;;;;;0.40;0.40;;;;;;;;;;8201088;28;20026;-71
2023/08/06 08:59:48;;;;;;;0.45;0.40;;;;;;;;;;8202591;28;20035;-71
2023/08/06 09:03:49;;;;;;;0.57;0.47;;;;;;;;;;8198936;28;20039;-72
2023/08/06 09:07:52;;;;;;;0.30;0.30;;;;;;;;;;8198336;28;20109;-71
2023/08/06 09:11:55;;;;;;;0.30;0.30;;;;;;;;;;8201230;28;20411;-71
2023/08/06 09:15:55;;;;;;;0.97;0.40;;;;;;;;;;8199757;28;20278;-71
2023/08/06 09:19:55;;;;;;;0.47;0.40;;;;;;;;;;8198096;28;20026;-71
2023/08/06 09:23:55;;;;;;;1.70;0.40;;;;;;;;;;8195275;28;20093;-71
2023/08/06 09:27:56;;;;;;;0.47;0.30;;;;;;;;;;8196645;28;20120;-71
2023/08/06 09:31:56;;;;;;;0.30;0.30;;;;;;;;;;8202598;28;20336;-72
2023/08/06 09:35:56;;;;;;;0.52;0.40;;;;;;;;;;8202621;28;20031;-71
2023/08/06 09:39:56;;;;;;;0.30;0.30;;;;;;;;;;8205582;28;20041;-71
2023/08/06 09:43:56;;;;;;;0.50;0.32;;;;;;;;;;8209035;28;20037;-71
2023/08/06 09:47:57;;;;;;;0.30;0.30;;;;;;;;;;8208174;28;20049;-71
2023/08/06 09:51:59;;;;;;;0.38;0.30;;;;;;;;;;8210069;28;20329;-71
2023/08/06 09:56:00;;;;;;;0.30;0.30;;;;;;;;;;8210787;28;20022;-71
2023/08/06 10:00:01;;;;;;;0.32;0.32;;;;;;;;;;8208492;28;20100;-71
2023/08/06 10:04:05;;;;;;;0.40;0.40;;;;;;;;;;8211129;28;21220;-71
2023/08/06 10:08:06;;;;;;;1.10;0.43;;;;;;;;;;8212007;28;20080;-71
2023/08/06 10:12:07;;;;;;;0.40;0.40;;;;;;;;;;8211633;28;20022;-71
2023/08/06 10:16:07;;;;;;;0.30;0.30;;;;;;;;;;8209953;28;20785;-71
2023/08/06 10:20:08;;;;;;;0.40;0.40;;;;;;;;;;8209130;28;20051;-71
2023/08/06 10:24:11;;;;;;;0.43;0.30;;;;;;;;;;8209983;28;20308;-71
2023/08/06 10:28:14;;;;;;;0.35;0.35;;;;;;;;;;8209518;28;20031;-72
2023/08/06 10:32:15;;;;;;;0.50;0.50;;;;;;;;;;8210526;28;20365;-71
2023/08/06 10:36:15;;;;;;;0.47;0.43;;;;;;;;;;8211920;28;20907;-72
2023/08/06 10:40:20;;;;;;;1.00;0.50;;;;;;;;;;8210442;28;20037;-71
2023/08/06 10:44:20;;;;;;;0.40;0.38;;;;;;;;;;8210991;28;20179;-71
2023/08/06 10:48:34;;;;;;;0.40;0.40;;;;;;;;;;8208318;28;20889;-71
2023/08/06 10:52:34;;;;;;;1.35;0.57;;;;;;;;;;8205420;28;20415;-71
2023/08/06 10:56:39;;;;;;;0.50;0.50;;;;;;;;;;8207471;28;20311;-71
2023/08/06 11:00:40;;;;;;;1.38;0.40;;;;;;;;;;8209968;28;20030;-71
2023/08/06 11:04:40;;;;;;;0.40;0.40;;;;;;;;;;8208466;28;20033;-71
2023/08/06 11:08:46;;;;;;;0.50;0.50;;;;;;;;;;8206724;28;20026;-72
2023/08/06 11:12:47;;;;;;;0.63;0.60;;;;;;;;;;8208975;28;20034;-71
2023/08/06 11:16:47;;;;;;;0.45;0.40;;;;;;;;;;8209017;28;20031;-72
2023/08/06 11:20:47;;;;;;;1.05;0.40;;;;;;;;;;8207896;28;20023;-72
2023/08/06 11:24:48;;;;;;;0.95;0.50;;;;;;;;;;8208513;28;20453;-72
2023/08/06 11:28:49;;;;;;;1.15;0.68;;;;;;;;;;8210901;28;20065;-72
2023/08/06 11:32:49;;;;;;;0.50;0.50;;;;;;;;;;8209141;28;20065;-71
2023/08/06 11:36:49;;;;;;;0.60;0.60;;;;;;;;;;8205920;28;20472;-72
2023/08/06 11:40:50;;;;;;;2.83;0.70;;;;;;;;;;8208974;28;20122;-72
2023/08/06 11:44:50;;;;;;;1.42;0.60;;;;;;;;;;8207303;28;20093;-72
2023/08/06 11:48:51;;;;;;;4.50;0.60;;;;;;;;;;8211379;28;20042;-74
2023/08/06 11:52:58;;;;;;;1.08;0.60;;;;;;;;;;8206337;28;20651;-72
2023/08/06 11:56:58;;;;;;;0.85;0.60;;;;;;;;;;8204781;28;20034;-71
2023/08/06 12:00:59;;;;;;;0.75;0.60;;;;;;;;;;8203681;28;20045;-72
2023/08/06 12:05:12;;;;;;;0.60;0.60;;;;;;;;;;8205703;28;20140;-72
2023/08/06 12:09:13;;;;;;;0.80;0.80;;;;;;;;;;8205417;28;20554;-71
2023/08/06 12:13:13;;;;;;;0.55;0.55;;;;;;;;;;8206463;28;20031;-72
2023/08/06 12:17:13;;;;;;;2.63;0.70;;;;;;;;;;8205147;28;20038;-72
2023/08/06 12:21:15;;;;;;;0.82;0.70;;;;;;;;;;8205592;28;20033;-72
2023/08/06 12:25:15;;;;;;;0.82;0.80;;;;;;;;;;8205150;28;20418;-72
2023/08/06 12:29:15;;;;;;;0.93;0.70;;;;;;;;;;8203952;28;20097;-72
2023/08/06 12:33:15;;;;;;;1.08;0.73;;;;;;;;;;8204846;28;20042;-71
2023/08/06 12:37:15;;;;;;;0.70;0.68;;;;;;;;;;8206673;28;20035;-72
2023/08/06 12:41:16;;;;;;;0.65;0.60;;;;;;;;;;8208368;28;20030;-72
2023/08/06 12:45:17;;;;;;;0.60;0.60;;;;;;;;;;8214115;28;20451;-71
2023/08/06 12:49:18;;;;;;;0.70;0.60;;;;;;;;;;8207550;28;20029;-72
2023/08/06 12:53:20;;;;;;;1.67;0.60;;;;;;;;;;8199922;28;20101;-72
2023/08/06 12:57:21;;;;;;;0.93;0.70;;;;;;;;;;8205649;28;20100;-71
2023/08/06 13:01:21;;;;;;;1.27;0.60;;;;;;;;;;8206931;28;20069;-72
2023/08/06 13:05:21;;;;;;;0.77;0.60;;;;;;;;;;8210817;28;20085;-73
2023/08/06 13:09:22;;;;;;;0.73;0.50;;;;;;;;;;8203350;28;20143;-72
2023/08/06 13:13:22;;;;;;;1.57;0.70;;;;;;;;;;8208992;28;20269;-72
2023/08/06 13:17:22;;;;;;;1.00;0.47;;;;;;;;;;8211655;28;20290;-72
2023/08/06 13:21:22;;;;;;;1.67;0.52;;;;;;;;;;8214865;28;20078;-72
2023/08/06 13:25:22;;;;;;;0.95;0.57;;;;;;;;;;8214078;28;20033;-72
2023/08/06 13:29:23;;;;;;;0.85;0.50;;;;;;;;;;8213544;28;20022;-72
2023/08/06 13:33:23;;;;;;;1.03;0.60;;;;;;;;;;8213092;28;20030;-72
2023/08/06 13:37:23;;;;;;;2.10;0.50;;;;;;;;;;8212315;28;20026;-72
2023/08/06 13:41:23;;;;;;;0.68;0.57;;;;;;;;;;8209205;28;20030;-72
2023/08/06 13:45:24;;;;;;;1.25;0.63;;;;;;;;;;8208735;28;20058;-71
2023/08/06 13:49:24;;;;;;;1.20;0.50;;;;;;;;;;8207064;28;20935;-72
2023/08/06 13:53:29;;;;;;;0.60;0.60;;;;;;;;;;8211875;28;20278;-72
2023/08/06 13:57:30;;;;;;;0.65;0.55;;;;;;;;;;8211552;28;20033;-72
2023/08/06 14:01:30;;;;;;;1.92;0.55;;;;;;;;;;8208977;28;20053;-72
2023/08/06 14:05:30;;;;;;;0.70;0.52;;;;;;;;;;8209931;28;20117;-72
2023/08/06 14:09:30;;;;;;;2.45;0.65;;;;;;;;;;8208603;28;20383;-71
2023/08/06 14:13:30;;;;;;;1.52;0.57;;;;;;;;;;8211450;28;20031;-72
2023/08/06 14:17:31;;;;;;;0.57;0.57;;;;;;;;;;8209619;28;20038;-72
2023/08/06 14:21:31;;;;;;;1.67;0.60;;;;;;;;;;8210776;28;20605;-72
2023/08/06 14:25:31;;;;;;;0.47;0.47;;;;;;;;;;8211027;28;20289;-72
2023/08/06 14:29:32;;;;;;;0.88;0.40;;;;;;;;;;8212151;28;20026;-73
2023/08/06 14:33:32;;;;;;;0.50;0.50;;;;;;;;;;8213959;28;20407;-72
2023/08/06 14:37:32;;;;;;;0.80;0.40;;;;;;;;;;8208919;28;20026;-73
2023/08/06 14:41:32;;;;;;;1.57;0.40;;;;;;;;;;8213750;28;20269;-72
2023/08/06 14:45:33;;;;;;;0.47;0.45;;;;;;;;;;8211704;28;20288;-72
2023/08/06 14:49:33;;;;;;;1.57;0.40;;;;;;;;;;8212040;28;20023;-73
2023/08/06 14:53:33;;;;;;;0.50;0.40;;;;;;;;;;8210014;28;20033;-72
2023/08/06 14:57:33;;;;;;;0.40;0.40;;;;;;;;;;8208423;28;20533;-72
2023/08/06 15:01:34;;;;;;;0.45;0.40;;;;;;;;;;8211000;28;20035;-72
2023/08/06 15:05:34;;;;;;;0.43;0.43;;;;;;;;;;8211866;28;20183;-73
2023/08/06 15:09:34;;;;;;;3.60;0.40;;;;;;;;;;8210418;28;20031;-72
2023/08/06 15:13:34;;;;;;;1.55;0.30;;;;;;;;;;8209711;28;20026;-72
2023/08/06 15:17:34;;;;;;;0.43;0.40;;;;;;;;;;8207862;28;20042;-73
2023/08/06 15:21:35;;;;;;;2.15;0.40;;;;;;;;;;8210423;28;20023;-72
2023/08/06 15:25:35;;;;;;;1.23;0.50;;;;;;;;;;8210907;28;20118;-72
2023/08/06 15:29:36;;;;;;;0.63;0.40;;;;;;;;;;8205910;28;20292;-73
2023/08/06 15:33:36;;;;;;;0.95;0.40;;;;;;;;;;8208305;28;20158;-72
2023/08/06 15:37:37;;;;;;;0.30;0.30;;;;;;;;;;8206970;28;20039;-72
2023/08/06 15:41:37;;;;;;;0.40;0.40;;;;;;;;;;8208861;28;20026;-72
2023/08/06 15:45:37;;;;;;;0.57;0.50;;;;;;;;;;8205825;28;20042;-72
2023/08/06 15:49:37;;;;;;;1.35;0.40;;;;;;;;;;8208923;28;20022;-72
2023/08/06 15:53:38;;;;;;;1.05;0.60;;;;;;;;;;8208479;28;20028;-72
2023/08/06 15:57:38;;;;;;;0.50;0.50;;;;;;;;;;8208005;28;20446;-72
2023/08/06 16:01:38;;;;;;;0.87;0.60;;;;;;;;;;8209530;28;20591;-73
2023/08/06 16:05:38;;;;;;;0.55;0.50;;;;;;;;;;8208596;28;20876;-72
2023/08/06 16:09:38;;;;;;;0.63;0.50;;;;;;;;;;8206947;28;20018;-72
2023/08/06 16:13:39;;;;;;;3.15;0.73;;;;;;;;;;8207445;28;20289;-72
2023/08/06 16:17:39;;;;;;;3.50;0.88;;;;;;;;;;8206195;28;20035;-72
2023/08/06 16:21:39;;;;;;;0.57;0.50;;;;;;;;;;8206184;28;20030;-72
2023/08/06 16:25:44;;;;;;;0.70;0.60;;;;;;;;;;8206207;28;20145;-72
2023/08/06 16:29:48;;;;;;;1.48;0.55;;;;;;;;;;8209181;28;20160;-72
2023/08/06 16:33:48;;;;;;;1.15;0.50;;;;;;;;;;8203879;28;20162;-72
2023/08/06 16:37:48;;;;;;;2.67;0.70;;;;;;;;;;8203515;28;20875;-71
2023/08/06 16:41:48;;;;;;;1.55;0.60;;;;;;;;;;8206363;28;20265;-72
2023/08/06 16:45:49;;;;;;;1.57;0.50;;;;;;;;;;8206258;28;20035;-71
2023/08/06 16:49:49;;;;;;;0.50;0.50;;;;;;;;;;8218931;28;20483;-71
2023/08/06 16:53:50;;;;;;;0.50;0.50;;;;;;;;;;8212295;28;20033;-71
2023/08/06 16:57:50;;;;;;;0.67;0.50;;;;;;;;;;8213661;28;20099;-71
2023/08/06 17:01:50;;;;;;;0.50;0.50;;;;;;;;;;8213236;28;20274;-71
2023/08/06 17:05:51;;;;;;;0.77;0.50;;;;;;;;;;8212645;28;20054;-71
2023/08/06 17:09:51;;;;;;;0.55;0.50;;;;;;;;;;8209591;28;20027;-71
2023/08/06 17:13:51;;;;;;;0.40;0.40;;;;;;;;;;8214371;28;20023;-71
2023/08/06 17:17:51;;;;;;;3.67;0.50;;;;;;;;;;8209427;28;20282;-72
2023/08/06 17:21:52;;;;;;;0.47;0.40;;;;;;;;;;8207781;28;20030;-72
2023/08/06 17:25:53;;;;;;;1.55;0.82;;;;;;;;;;8209318;28;20282;-71
2023/08/06 17:29:53;;;;;;;0.93;0.50;;;;;;;;;;8211078;28;20055;-72
2023/08/06 17:33:53;;;;;;;1.17;0.63;;;;;;;;;;8208620;28;20118;-71
2023/08/06 17:37:54;;;;;;;0.60;0.60;;;;;;;;;;8209286;28;20105;-71
2023/08/06 17:41:54;;;;;;;1.08;0.68;;;;;;;;;;8209679;28;20046;-72
2023/08/06 17:45:54;;;;;;;1.33;0.60;;;;;;;;;;8210343;28;20042;-71
2023/08/06 17:49:54;;;;;;;2.75;0.60;;;;;;;;;;8209824;28;20062;-71
2023/08/06 17:53:54;;;;;;;1.17;0.55;;;;;;;;;;8210746;28;20081;-71
2023/08/06 17:57:55;;;;;;;1.55;0.55;;;;;;;;;;8208600;28;20027;-72
2023/08/06 18:01:55;;;;;;;0.93;0.50;;;;;;;;;;8210769;28;20510;-72
2023/08/06 18:05:56;;;;;;;0.82;0.50;;;;;;;;;;8208059;28;20026;-71
2023/08/06 18:09:56;;;;;;;1.65;0.45;;;;;;;;;;8209398;28;20125;-72
2023/08/06 18:13:57;;;;;;;2.97;0.50;;;;;;;;;;8212845;28;20082;-71
2023/08/06 18:17:57;;;;;;;0.93;0.50;;;;;;;;;;8211572;28;21223;-72
2023/08/06 18:21:57;;;;;;;0.87;0.40;;;;;;;;;;8211227;28;20070;-71
2023/08/06 18:25:58;;;;;;;1.20;0.60;;;;;;;;;;8212312;28;20088;-70
2023/08/06 18:29:59;;;;;;;0.82;0.43;;;;;;;;;;8211678;28;20018;-71
2023/08/06 18:33:59;;;;;;;1.00;0.60;;;;;;;;;;8210823;28;20080;-71
2023/08/06 18:38:00;;;;;;;1.07;0.70;;;;;;;;;;8209597;28;20814;-71
2023/08/06 18:42:01;;;;;;;3.55;0.70;;;;;;;;;;8211253;28;20348;-72
2023/08/06 18:46:01;;;;;;;0.75;0.60;;;;;;;;;;8216757;28;20043;-72
2023/08/06 18:50:01;;;;;;;1.10;0.70;;;;;;;;;;8210418;28;20031;-71
2023/08/06 18:54:02;;;;;;;0.83;0.60;;;;;;;;;;8208713;28;20277;-71
2023/08/06 18:58:04;;;;;;;0.50;0.50;;;;;;;;;;8224058;28;20368;-72
2023/08/06 19:02:05;;;;;;;0.60;0.60;;;;;;;;;;8209435;28;20043;-72
2023/08/06 19:06:06;;;;;;;0.98;0.60;;;;;;;;;;8210052;28;20026;-71
2023/08/06 19:10:07;;;;;;;0.68;0.50;;;;;;;;;;8205384;28;20058;-71
2023/08/06 19:14:07;;;;;;;0.73;0.43;;;;;;;;;;8208288;28;20392;-71
2023/08/06 19:18:07;;;;;;;0.40;0.40;;;;;;;;;;8206032;28;20046;-71
2023/08/06 19:22:08;;;;;;;0.43;0.43;;;;;;;;;;8207509;28;20031;-71
2023/08/06 19:26:09;;;;;;;1.08;0.57;;;;;;;;;;8207588;28;20121;-72
2023/08/06 19:30:09;;;;;;;1.50;0.60;;;;;;;;;;8206150;28;20509;-71
2023/08/06 19:34:09;;;;;;;1.65;0.45;;;;;;;;;;8207961;28;20042;-71
2023/08/06 19:38:09;;;;;;;1.58;0.55;;;;;;;;;;8207594;28;20022;-72
2023/08/06 19:42:10;;;;;;;1.63;0.50;;;;;;;;;;8206663;28;20034;-72
2023/08/06 19:46:10;;;;;;;2.63;0.60;;;;;;;;;;8206943;28;20043;-71
2023/08/06 19:50:11;;;;;;;3.58;0.82;;;;;;;;;;8204102;28;20019;-71
2023/08/06 19:54:11;;;;;;;2.77;0.60;;;;;;;;;;8206510;28;20030;-72
2023/08/06 19:58:11;;;;;;;2.97;0.70;;;;;;;;;;8205685;28;20085;-71
2023/08/06 20:02:11;;;;;;;2.53;0.85;;;;;;;;;;8207914;28;20030;-71
2023/08/06 20:06:12;;;;;;;3.53;0.77;;;;;;;;;;8209072;28;20443;-71
2023/08/06 20:10:13;;;;;;;3.60;0.68;;;;;;;;;;8208062;28;20029;-71
2023/08/06 20:14:13;;;;;;;1.55;0.70;;;;;;;;;;8210420;28;20037;-71
2023/08/06 20:18:14;;;;;;;3.95;0.65;;;;;;;;;;8207432;28;20120;-70
2023/08/06 20:22:15;;;;;;;1.77;0.70;;;;;;;;;;8205323;28;20081;-70
2023/08/06 20:26:15;;;;;;;1.48;0.80;;;;;;;;;;8206056;28;20038;-70
2023/08/06 20:30:15;;;;;;;1.67;0.70;;;;;;;;;;8206010;28;20088;-70
2023/08/06 20:34:15;;;;;;;2.50;0.60;;;;;;;;;;8206211;28;20034;-71
2023/08/06 20:38:18;;;;;;;2.55;0.70;;;;;;;;;;8204040;28;20773;-71
2023/08/06 20:42:18;;;;;;;1.58;0.50;;;;;;;;;;8206463;28;20038;-71
2023/08/06 20:46:19;;;;;;;1.90;0.80;;;;;;;;;;8203730;28;20031;-71
2023/08/06 20:50:19;;;;;;;1.23;0.70;;;;;;;;;;8206360;28;20060;-71
2023/08/06 20:54:19;;;;;;;3.20;0.60;;;;;;;;;;8204166;28;20284;-70
2023/08/06 20:58:19;;;;;;;2.80;0.60;;;;;;;;;;8205246;28;20027;-70
2023/08/06 21:02:21;;;;;;;1.55;0.60;;;;;;;;;;8203262;28;20043;-70
2023/08/06 21:06:21;;;;;;;1.58;0.90;;;;;;;;;;8206128;28;20066;-72
2023/08/06 21:10:22;;;;;;;1.17;0.88;;;;;;;;;;8203058;28;20022;-70
2023/08/06 21:14:22;;;;;;;2.53;0.85;;;;;;;;;;8206609;28;20029;-70
2023/08/06 21:18:22;;;;;;;2.40;1.30;;;;;;;;;;8200427;28;20058;-71
2023/08/06 21:22:22;;;;;;;1.98;0.90;;;;;;;;;;8203092;28;20034;-70
2023/08/06 21:26:23;;;;;;;4.00;0.88;;;;;;;;;;8205571;28;20660;-70
2023/08/06 21:30:23;;;;;;;1.75;0.80;;;;;;;;;;8202708;28;20046;-70
2023/08/06 21:34:23;;;;;;;4.22;0.90;;;;;;;;;;8203718;28;20372;-70
2023/08/06 21:38:26;;;;;;;2.53;0.90;;;;;;;;;;8210712;28;20026;-70
2023/08/06 21:42:26;;;;;;;2.97;0.80;;;;;;;;;;8220881;28;20029;-69
2023/08/06 21:46:26;;;;;;;1.42;0.70;;;;;;;;;;8212208;28;20034;-70
2023/08/06 21:50:27;;;;;;;1.80;0.85;;;;;;;;;;8211499;28;20019;-70
2023/08/06 21:54:27;;;;;;;1.70;0.70;;;;;;;;;;8208252;28;20049;-70
2023/08/06 21:58:27;;;;;;;2.95;0.93;;;;;;;;;;8208097;28;20045;-70
2023/08/06 22:02:27;;;;;;;1.92;0.80;;;;;;;;;;8210415;28;20038;-71
2023/08/06 22:06:27;;;;;;;3.03;0.90;;;;;;;;;;8208670;28;20156;-70
2023/08/06 22:10:28;;;;;;;1.50;0.77;;;;;;;;;;8208597;28;20022;-70
2023/08/06 22:14:28;;;;;;;3.05;0.93;;;;;;;;;;8207417;28;20025;-69
2023/08/06 22:18:29;;;;;;;3.03;1.00;;;;;;;;;;8207468;28;20053;-70
2023/08/06 22:22:29;;;;;;;2.93;1.10;;;;;;;;;;8208600;28;20274;-70
2023/08/06 22:26:29;;;;;;;2.00;1.00;;;;;;;;;;8208821;28;20031;-70
2023/08/06 22:30:30;;;;;;;2.28;1.10;;;;;;;;;;8207608;28;20031;-70
2023/08/06 22:34:30;;;;;;;2.53;1.10;;;;;;;;;;8207533;28;20065;-70
2023/08/06 22:38:30;;;;;;;3.78;1.10;;;;;;;;;;8207168;28;20697;-70
2023/08/06 22:42:31;;;;;;;5.73;1.10;;;;;;;;;;8209232;28;20105;-70
2023/08/06 22:46:32;;;;;;;4.00;1.15;;;;;;;;;;8207465;28;20281;-70
2023/08/06 22:50:32;;;;;;;3.78;1.05;;;;;;;;;;8207970;28;20022;-70
2023/08/06 22:54:32;;;;;;;2.95;1.10;;;;;;;;;;8208690;28;20085;-70
2023/08/06 22:58:32;;;;;;;2.45;1.00;;;;;;;;;;8208087;28;20886;-70
2023/08/06 23:02:33;;;;;;;3.58;1.23;;;;;;;;;;8211477;28;20042;-71
2023/08/06 23:06:33;;;;;;;4.00;1.25;;;;;;;;;;8207944;28;20034;-70
2023/08/06 23:10:34;;;;;;;3.10;1.20;;;;;;;;;;8192084;28;20031;-70
2023/08/06 23:14:34;;;;;;;11.75;1.60;;;;;;;;;;8207713;28;20037;-70
2023/08/06 23:18:35;;;;;;;4.68;1.40;;;;;;;;;;8204861;28;20130;-70
2023/08/06 23:22:35;;;;;;;4.15;1.58;;;;;;;;;;8207617;28;20480;-70
2023/08/06 23:26:35;;;;;;;3.17;1.40;;;;;;;;;;8205575;28;20105;-70
2023/08/06 23:30:36;;;;;;;3.40;1.10;;;;;;;;;;8213157;28;20553;-71
2023/08/06 23:34:36;;;;;;;5.28;1.63;;;;;;;;;;8202872;28;20408;-70
2023/08/06 23:38:37;;;;;;;4.35;1.58;;;;;;;;;;8206833;28;20022;-70
2023/08/06 23:42:37;;;;;;;5.03;1.70;;;;;;;;;;8208666;28;20070;-70
2023/08/06 23:46:38;;;;;;;5.22;1.30;;;;;;;;;;8205536;28;20325;-70
2023/08/06 23:50:38;;;;;;;6.18;1.67;;;;;;;;;;8204054;28;20742;-70
2023/08/06 23:54:39;;;;;;;4.07;1.23;;;;;;;;;;8201181;28;20080;-70
2023/08/06 23:58:40;;;;;;;6.75;1.83;;;;;;;;;;8200103;28;20033;-70
